createdAt,value
2019-06-15T00:00:27.215Z,101623.59
2019-06-15T00:01:28.677Z,101623.59
2019-06-15T00:02:30.048Z,101625.77
2019-06-15T00:03:31.430Z,101625.43
2019-06-15T00:04:32.894Z,101623.25
2019-06-15T00:05:34.424Z,101630.98
2019-06-15T00:06:35.801Z,101629.64
2019-06-15T00:07:37.169Z,101632.95
2019-06-15T00:08:38.540Z,101634.69
2019-06-15T00:09:39.912Z,101631.61
2019-06-15T00:10:41.337Z,101636.17
2019-06-15T00:11:42.764Z,101637.52
2019-06-15T00:12:44.180Z,101633.95
2019-06-15T00:13:45.551Z,101626.87
2019-06-15T00:14:46.917Z,101630.44
2019-06-15T00:15:48.319Z,101627.73
2019-06-15T00:16:49.695Z,101629.56
2019-06-15T00:17:51.069Z,101630.09
2019-06-15T00:18:52.443Z,101627.53
2019-06-15T00:19:53.809Z,101625.70
2019-06-15T00:20:55.235Z,101623.48
2019-06-15T00:21:56.712Z,101623.00
2019-06-15T00:22:58.074Z,101627.88
2019-06-15T00:23:59.440Z,101626.05
2019-06-15T00:25:00.809Z,101625.35
2019-06-15T00:26:02.336Z,101623.48
2019-06-15T00:27:03.711Z,101627.53
2019-06-15T00:28:05.246Z,101619.10
2019-06-15T00:29:06.625Z,101627.53
2019-06-15T00:30:08.694Z,101627.53
2019-06-15T00:31:10.444Z,101630.22
2019-06-15T00:32:11.812Z,101624.48
2019-06-15T00:33:13.205Z,101626.18
2019-06-15T00:34:14.568Z,101630.73
2019-06-15T00:35:15.946Z,101632.92
2019-06-15T00:36:17.440Z,101629.05
2019-06-15T00:37:18.816Z,101630.39
2019-06-15T00:38:20.176Z,101632.22
2019-06-15T00:39:21.647Z,101628.19
2019-06-15T00:40:23.024Z,101625.66
2019-06-15T00:41:24.433Z,101631.05
2019-06-15T00:42:25.812Z,101620.27
2019-06-15T00:43:27.180Z,101625.14
2019-06-15T00:44:28.549Z,101624.31
2019-06-15T00:45:29.922Z,101623.80
2019-06-15T00:46:31.352Z,101616.72
2019-06-15T00:47:32.816Z,101620.41
2019-06-15T00:48:34.183Z,101619.06
2019-06-15T00:49:35.555Z,101622.10
2019-06-15T00:50:36.918Z,101625.80
2019-06-15T00:51:38.339Z,101628.48
2019-06-15T00:52:39.717Z,101627.14
2019-06-15T00:53:41.076Z,101625.45
2019-06-15T00:54:50.367Z,101633.05
2019-06-15T00:55:45.716Z,101633.87
2019-06-15T00:56:47.092Z,101637.91
2019-06-15T00:57:48.623Z,101637.09
2019-06-15T00:58:50.227Z,101632.70
2019-06-15T00:59:51.596Z,101633.19
2019-06-15T01:00:52.966Z,101639.43
2019-06-15T01:01:54.438Z,101638.57
2019-06-15T01:02:55.815Z,101635.53
2019-06-15T01:03:57.180Z,101639.43
2019-06-15T01:04:58.660Z,101641.27
2019-06-15T01:06:00.029Z,101635.39
2019-06-15T01:07:01.416Z,101636.39
2019-06-15T01:08:03.058Z,101633.70
2019-06-15T01:09:05.713Z,101631.84
2019-06-15T01:10:07.981Z,101634.39
2019-06-15T01:11:09.347Z,101630.84
2019-06-15T01:12:10.721Z,101636.57
2019-06-15T01:13:12.106Z,101640.13
2019-06-15T01:14:13.589Z,101637.09
2019-06-15T01:15:16.358Z,101634.39
2019-06-15T01:16:17.716Z,101641.95
2019-06-15T01:17:19.086Z,101636.09
2019-06-15T01:18:20.571Z,101645.52
2019-06-15T01:19:21.935Z,101634.88
2019-06-15T01:20:23.304Z,101640.61
2019-06-15T01:21:24.676Z,101639.78
2019-06-15T01:22:26.224Z,101639.43
2019-06-15T01:23:27.603Z,101642.47
2019-06-15T01:24:28.975Z,101639.27
2019-06-15T01:25:30.457Z,101640.27
2019-06-15T01:26:31.824Z,101640.27
2019-06-15T01:27:33.296Z,101634.88
2019-06-15T01:28:34.680Z,101630.01
2019-06-15T01:29:37.528Z,101629.14
2019-06-15T01:30:38.933Z,101625.45
2019-06-15T01:31:40.303Z,101624.62
2019-06-15T01:32:41.672Z,101623.76
2019-06-15T01:33:43.037Z,101621.06
2019-06-15T01:34:44.427Z,101624.27
2019-06-15T01:35:45.800Z,101625.97
2019-06-15T01:36:47.172Z,101624.62
2019-06-15T01:37:48.557Z,101621.06
2019-06-15T01:38:49.929Z,101620.58
2019-06-15T01:39:51.316Z,101623.76
2019-06-15T01:40:52.751Z,101619.37
2019-06-15T01:41:54.221Z,101621.06
2019-06-15T01:42:56.589Z,101619.37
2019-06-15T01:43:58.038Z,101608.59
2019-06-15T01:45:00.511Z,101617.54
2019-06-15T01:46:03.312Z,101613.16
2019-06-15T01:47:05.793Z,101608.25
2019-06-15T01:48:07.170Z,101604.21
2019-06-15T01:49:08.536Z,101598.83
2019-06-15T01:50:09.912Z,101600.34
2019-06-15T01:51:11.398Z,101594.95
2019-06-15T01:52:12.774Z,101600.34
2019-06-15T01:53:14.220Z,101597.64
2019-06-15T01:54:15.590Z,101599.83
2019-06-15T01:55:20.902Z,101601.69
2019-06-15T01:56:20.379Z,101601.34
2019-06-15T01:57:21.743Z,101605.38
2019-06-15T01:58:23.126Z,101602.17
2019-06-15T01:59:24.600Z,101605.86
2019-06-15T02:00:32.313Z,101604.52
2019-06-15T02:01:33.800Z,101603.17
2019-06-15T02:02:35.184Z,101597.78
2019-06-15T02:03:36.546Z,101604.17
2019-06-15T02:04:37.944Z,101602.83
2019-06-15T02:05:39.278Z,101599.78
2019-06-15T02:06:40.662Z,101606.52
2019-06-15T02:07:42.036Z,101602.48
2019-06-15T02:08:43.416Z,101602.83
2019-06-15T02:09:44.777Z,101607.38
2019-06-15T02:10:46.257Z,101605.52
2019-06-15T02:11:47.665Z,101604.17
2019-06-15T02:12:49.014Z,101602.48
2019-06-15T02:13:50.388Z,101603.82
2019-06-15T02:14:51.760Z,101604.52
2019-06-15T02:15:53.137Z,101604.52
2019-06-15T02:16:54.536Z,101600.48
2019-06-15T02:17:55.912Z,101604.52
2019-06-15T02:18:58.388Z,101600.99
2019-06-15T02:19:59.771Z,101598.99
2019-06-15T02:21:01.149Z,101596.78
2019-06-15T02:22:02.782Z,101589.56
2019-06-15T02:23:04.253Z,101589.70
2019-06-15T02:24:05.794Z,101594.09
2019-06-15T02:25:07.460Z,101594.09
2019-06-15T02:26:08.835Z,101596.44
2019-06-15T02:27:10.212Z,101597.78
2019-06-15T02:28:11.618Z,101596.95
2019-06-15T02:29:13.062Z,101595.61
2019-06-15T02:30:14.627Z,101592.05
2019-06-15T02:31:15.999Z,101592.05
2019-06-15T02:32:17.465Z,101592.05
2019-06-15T02:33:18.833Z,101592.05
2019-06-15T02:34:20.209Z,101592.05
2019-06-15T02:35:21.586Z,101590.56
2019-06-15T02:36:22.957Z,101590.70
2019-06-15T02:37:24.347Z,101588.02
2019-06-15T02:38:25.716Z,101598.64
2019-06-15T02:39:27.218Z,101595.09
2019-06-15T02:40:28.569Z,101600.99
2019-06-15T02:41:29.927Z,101604.52
2019-06-15T02:42:31.299Z,101600.99
2019-06-15T02:43:32.673Z,101605.52
2019-06-15T02:44:35.047Z,101607.38
2019-06-15T02:45:36.422Z,101598.44
2019-06-15T02:46:38.192Z,101602.48
2019-06-15T02:47:39.563Z,101600.30
2019-06-15T02:48:41.037Z,101601.12
2019-06-15T02:49:42.433Z,101600.30
2019-06-15T02:50:44.098Z,101601.65
2019-06-15T02:51:45.569Z,101604.82
2019-06-15T02:52:47.085Z,101602.65
2019-06-15T02:53:48.568Z,101600.44
2019-06-15T02:54:50.124Z,101604.00
2019-06-15T02:55:51.490Z,101605.00
2019-06-15T02:56:52.867Z,101605.12
2019-06-15T02:57:55.336Z,101610.00
2019-06-15T02:58:56.830Z,101614.42
2019-06-15T02:59:58.201Z,101611.86
2019-06-15T03:01:06.827Z,101607.82
2019-06-15T03:02:08.397Z,101614.91
2019-06-15T03:03:09.865Z,101609.52
2019-06-15T03:04:11.362Z,101612.34
2019-06-15T03:05:13.033Z,101614.20
2019-06-15T03:06:14.611Z,101611.17
2019-06-15T03:07:16.184Z,101615.20
2019-06-15T03:08:17.573Z,101619.25
2019-06-15T03:09:18.933Z,101622.77
2019-06-15T03:10:20.413Z,101623.28
2019-06-15T03:11:21.800Z,101623.63
2019-06-15T03:12:23.399Z,101628.16
2019-06-15T03:13:26.108Z,101622.77
2019-06-15T03:14:27.582Z,101626.33
2019-06-15T03:15:28.952Z,101628.37
2019-06-15T03:16:30.336Z,101625.67
2019-06-15T03:17:31.714Z,101618.25
2019-06-15T03:18:33.213Z,101622.28
2019-06-15T03:19:34.568Z,101614.55
2019-06-15T03:20:35.942Z,101616.90
2019-06-15T03:21:37.316Z,101608.47
2019-06-15T03:22:38.773Z,101610.66
2019-06-15T03:23:40.210Z,101608.12
2019-06-15T03:24:41.659Z,101605.92
2019-06-15T03:25:43.007Z,101608.12
2019-06-15T03:26:44.381Z,101604.44
2019-06-15T03:27:45.752Z,101604.09
2019-06-15T03:28:47.137Z,101605.09
2019-06-15T03:29:48.507Z,101607.78
2019-06-15T03:30:49.884Z,101603.39
2019-06-15T03:31:51.261Z,101607.44
2019-06-15T03:32:52.648Z,101611.82
2019-06-15T03:33:54.010Z,101612.82
2019-06-15T03:34:55.473Z,101608.44
2019-06-15T03:35:56.840Z,101611.95
2019-06-15T03:36:58.208Z,101614.17
2019-06-15T03:37:59.587Z,101612.47
2019-06-15T03:39:00.965Z,101614.66
2019-06-15T03:40:04.633Z,101611.12
2019-06-15T03:41:05.999Z,101611.61
2019-06-15T03:42:07.361Z,101613.30
2019-06-15T03:43:08.833Z,101616.00
2019-06-15T03:44:10.223Z,101616.34
2019-06-15T03:45:11.788Z,101614.17
2019-06-15T03:46:13.145Z,101621.89
2019-06-15T03:47:14.517Z,101617.51
2019-06-15T03:48:15.883Z,101628.62
2019-06-15T03:49:17.292Z,101629.11
2019-06-15T03:50:18.959Z,101630.97
2019-06-15T03:51:20.525Z,101627.28
2019-06-15T03:52:22.002Z,101632.16
2019-06-15T03:53:23.370Z,101633.84
2019-06-15T03:54:24.924Z,101632.02
2019-06-15T03:55:26.387Z,101630.67
2019-06-15T03:56:27.777Z,101630.16
2019-06-15T03:57:29.153Z,101630.67
2019-06-15T03:58:30.515Z,101628.45
2019-06-15T03:59:31.965Z,101634.70
2019-06-15T04:00:48.202Z,101630.32
2019-06-15T04:01:49.772Z,101633.84
2019-06-15T04:02:51.144Z,101632.71
2019-06-15T04:03:52.508Z,101633.84
2019-06-15T04:04:53.919Z,101633.36
2019-06-15T04:05:55.522Z,101637.53
2019-06-15T04:06:56.906Z,101633.50
2019-06-15T04:07:58.270Z,101636.70
2019-06-15T04:08:59.659Z,101636.05
2019-06-15T04:10:01.031Z,101633.50
2019-06-15T04:11:02.408Z,101627.63
2019-06-15T04:12:03.780Z,101629.80
2019-06-15T04:13:05.153Z,101626.11
2019-06-15T04:14:06.517Z,101627.45
2019-06-15T04:15:07.957Z,101614.86
2019-06-15T04:16:09.620Z,101626.46
2019-06-15T04:17:10.984Z,101620.59
2019-06-15T04:18:13.356Z,101625.33
2019-06-15T04:19:14.725Z,101619.80
2019-06-15T04:20:16.097Z,101620.63
2019-06-15T04:21:17.505Z,101619.63
2019-06-15T04:22:18.871Z,101622.19
2019-06-15T04:23:20.238Z,101626.06
2019-06-15T04:24:21.713Z,101618.84
2019-06-15T04:25:23.082Z,101625.06
2019-06-15T04:26:35.685Z,101628.97
2019-06-15T04:27:27.913Z,101627.10
2019-06-15T04:28:29.295Z,101625.45
2019-06-15T04:29:30.734Z,101624.62
2019-06-15T04:30:32.117Z,101623.76
2019-06-15T04:31:33.618Z,101621.41
2019-06-15T04:32:35.082Z,101623.10
2019-06-15T04:33:36.453Z,101620.41
2019-06-15T04:34:37.831Z,101622.10
2019-06-15T04:35:42.044Z,101613.67
2019-06-15T04:36:43.431Z,101617.23
2019-06-15T04:37:44.908Z,101619.41
2019-06-15T04:38:46.284Z,101615.37
2019-06-15T04:39:47.665Z,101611.33
2019-06-15T04:40:49.048Z,101608.98
2019-06-15T04:41:50.501Z,101614.88
2019-06-15T04:42:52.860Z,101609.84
2019-06-15T04:43:54.252Z,101606.29
2019-06-15T04:44:55.629Z,101603.11
2019-06-15T04:45:57.231Z,101607.98
2019-06-15T04:46:58.620Z,101600.25
2019-06-15T04:48:00.021Z,101595.38
2019-06-15T04:49:01.402Z,101603.28
2019-06-15T04:50:04.088Z,101596.41
2019-06-15T04:51:06.569Z,101594.72
2019-06-15T04:52:08.053Z,101597.24
2019-06-15T04:53:09.424Z,101593.20
2019-06-15T04:54:10.839Z,101590.52
2019-06-15T04:55:12.500Z,101581.95
2019-06-15T04:56:13.872Z,101577.91
2019-06-15T04:57:15.244Z,101576.05
2019-06-15T04:58:16.616Z,101572.00
2019-06-15T04:59:18.028Z,101572.86
2019-06-15T05:00:19.397Z,101575.04
2019-06-15T05:01:20.760Z,101576.05
2019-06-15T05:02:22.128Z,101566.13
2019-06-15T05:03:23.589Z,101572.34
2019-06-15T05:04:25.008Z,101577.73
2019-06-15T05:05:26.376Z,101576.91
2019-06-15T05:06:29.840Z,101573.69
2019-06-15T05:07:31.689Z,101583.13
2019-06-15T05:08:33.091Z,101583.13
2019-06-15T05:09:35.580Z,101581.29
2019-06-15T05:10:36.959Z,101580.81
2019-06-15T05:11:38.329Z,101588.38
2019-06-15T05:12:39.699Z,101579.80
2019-06-15T05:13:41.081Z,101579.95
2019-06-15T05:14:42.451Z,101583.50
2019-06-15T05:15:43.853Z,101584.84
2019-06-15T05:16:45.240Z,101581.29
2019-06-15T05:17:46.627Z,101582.16
2019-06-15T05:18:47.987Z,101579.46
2019-06-15T05:19:49.370Z,101578.11
2019-06-15T05:20:50.872Z,101572.72
2019-06-15T05:21:52.243Z,101575.77
2019-06-15T05:22:53.731Z,101570.86
2019-06-15T05:23:55.084Z,101574.42
2019-06-15T05:24:56.597Z,101575.77
2019-06-15T05:25:57.949Z,101575.25
2019-06-15T05:27:06.261Z,101577.45
2019-06-15T05:28:02.799Z,101577.45
2019-06-15T05:29:04.281Z,101577.45
2019-06-15T05:30:06.550Z,101579.15
2019-06-15T05:31:07.941Z,101568.03
2019-06-15T05:32:09.412Z,101581.50
2019-06-15T05:33:10.786Z,101580.50
2019-06-15T05:34:12.149Z,101582.84
2019-06-15T05:35:13.822Z,101585.37
2019-06-15T05:36:15.237Z,101588.06
2019-06-15T05:37:16.695Z,101589.92
2019-06-15T05:38:18.556Z,101584.53
2019-06-15T05:39:19.929Z,101589.92
2019-06-15T05:40:21.301Z,101585.88
2019-06-15T05:41:23.891Z,101581.50
2019-06-15T05:42:25.259Z,101589.06
2019-06-15T05:43:26.636Z,101589.92
2019-06-15T05:44:28.001Z,101582.84
2019-06-15T05:45:29.395Z,101586.37
2019-06-15T05:46:30.760Z,101585.88
2019-06-15T05:47:33.262Z,101585.88
2019-06-15T05:48:34.597Z,101579.98
2019-06-15T05:49:35.964Z,101587.23
2019-06-15T05:50:37.334Z,101582.84
2019-06-15T05:51:39.830Z,101579.15
2019-06-15T05:52:41.214Z,101580.98
2019-06-15T05:53:42.668Z,101588.06
2019-06-15T05:54:44.270Z,101581.84
2019-06-15T05:55:45.641Z,101587.23
2019-06-15T05:56:47.016Z,101581.84
2019-06-15T05:57:48.410Z,101584.19
2019-06-15T05:58:49.778Z,101588.23
2019-06-15T05:59:51.173Z,101581.15
2019-06-15T06:00:52.641Z,101585.19
2019-06-15T06:01:54.094Z,101587.89
2019-06-15T06:02:55.533Z,101584.84
2019-06-15T06:03:56.919Z,101589.23
2019-06-15T06:04:58.291Z,101592.93
2019-06-15T06:05:59.665Z,101593.75
2019-06-15T06:07:01.036Z,101595.97
2019-06-15T06:08:02.677Z,101591.92
2019-06-15T06:09:05.828Z,101594.62
2019-06-15T06:10:10.621Z,101598.84
2019-06-15T06:11:11.132Z,101597.00
2019-06-15T06:12:12.556Z,101593.66
2019-06-15T06:13:14.012Z,101592.14
2019-06-15T06:14:15.449Z,101587.61
2019-06-15T06:15:17.351Z,101589.65
2019-06-15T06:16:18.721Z,101595.55
2019-06-15T06:17:20.099Z,101597.11
2019-06-15T06:18:21.472Z,101593.23
2019-06-15T06:19:22.932Z,101586.70
2019-06-15T06:20:24.410Z,101591.78
2019-06-15T06:21:25.794Z,101592.37
2019-06-15T06:22:27.175Z,101586.32
2019-06-15T06:23:28.613Z,101589.19
2019-06-15T06:24:30.009Z,101585.69
2019-06-15T06:25:31.384Z,101586.20
2019-06-15T06:26:32.757Z,101584.20
2019-06-15T06:27:36.819Z,101575.83
2019-06-15T06:28:37.416Z,101579.04
2019-06-15T06:29:38.793Z,101581.63
2019-06-15T06:30:40.158Z,101581.30
2019-06-15T06:31:41.550Z,101579.64
2019-06-15T06:32:42.901Z,101583.36
2019-06-15T06:33:44.290Z,101586.42
2019-06-15T06:34:45.712Z,101589.81
2019-06-15T06:35:47.107Z,101582.75
2019-06-15T06:36:48.504Z,101589.52
2019-06-15T06:37:49.880Z,101581.11
2019-06-15T06:38:51.263Z,101579.78
2019-06-15T06:39:52.888Z,101575.10
2019-06-15T06:40:54.352Z,101584.56
2019-06-15T06:41:55.744Z,101584.73
2019-06-15T06:42:57.120Z,101587.97
2019-06-15T06:43:58.536Z,101592.55
2019-06-15T06:44:59.996Z,101592.89
2019-06-15T06:46:01.619Z,101596.47
2019-06-15T06:47:03.024Z,101601.70
2019-06-15T06:48:04.405Z,101601.06
2019-06-15T06:50:09.148Z,101600.41
2019-06-15T06:51:10.517Z,101597.73
2019-06-15T06:52:11.898Z,101600.25
2019-06-15T06:53:13.284Z,101596.55
2019-06-15T06:54:14.660Z,101600.94
2019-06-15T06:55:16.031Z,101597.91
2019-06-15T06:56:17.469Z,101599.60
2019-06-15T06:57:18.864Z,101597.09
2019-06-15T06:58:20.244Z,101597.44
2019-06-15T06:59:21.622Z,101605.39
2019-06-15T07:00:23.111Z,101604.38
2019-06-15T07:01:24.477Z,101606.41
2019-06-15T07:02:25.865Z,101601.36
2019-06-15T07:03:27.300Z,101607.09
2019-06-15T07:04:28.681Z,101608.61
2019-06-15T07:05:30.066Z,101606.25
2019-06-15T07:06:31.448Z,101608.46
2019-06-15T07:07:32.910Z,101603.06
2019-06-15T07:08:34.528Z,101611.32
2019-06-15T07:09:35.892Z,101609.48
2019-06-15T07:10:37.280Z,101608.47
2019-06-15T07:11:38.648Z,101610.84
2019-06-15T07:12:40.027Z,101609.98
2019-06-15T07:13:41.405Z,101607.28
2019-06-15T07:14:42.786Z,101606.27
2019-06-15T07:15:44.230Z,101607.14
2019-06-15T07:16:45.707Z,101599.03
2019-06-15T07:17:47.081Z,101614.23
2019-06-15T07:18:49.177Z,101606.13
2019-06-15T07:19:50.557Z,101611.87
2019-06-15T07:20:51.965Z,101615.06
2019-06-15T07:21:53.343Z,101605.98
2019-06-15T07:22:54.806Z,101616.60
2019-06-15T07:23:56.188Z,101609.52
2019-06-15T07:24:57.713Z,101616.78
2019-06-15T07:25:59.097Z,101614.08
2019-06-15T07:27:00.488Z,101617.61
2019-06-15T07:28:08.132Z,101613.91
2019-06-15T07:29:05.240Z,101616.26
2019-06-15T07:30:10.175Z,101617.95
2019-06-15T07:31:10.585Z,101617.47
2019-06-15T07:32:12.147Z,101616.60
2019-06-15T07:33:13.531Z,101619.64
2019-06-15T07:34:14.897Z,101617.47
2019-06-15T07:35:16.277Z,101620.65
2019-06-15T07:36:17.652Z,101617.13
2019-06-15T07:37:19.025Z,101622.00
2019-06-15T07:38:20.433Z,101624.70
2019-06-15T07:39:21.921Z,101622.18
2019-06-15T07:40:23.302Z,101624.70
2019-06-15T07:41:24.696Z,101627.41
2019-06-15T07:42:27.236Z,101632.98
2019-06-15T07:43:29.001Z,101628.41
2019-06-15T07:44:30.365Z,101633.81
2019-06-15T07:45:31.736Z,101628.41
2019-06-15T07:46:33.112Z,101636.85
2019-06-15T07:47:34.490Z,101630.28
2019-06-15T07:48:35.856Z,101637.52
2019-06-15T07:49:38.404Z,101634.82
2019-06-15T07:50:39.782Z,101637.03
2019-06-15T07:51:41.171Z,101644.61
2019-06-15T07:52:42.547Z,101645.62
2019-06-15T07:53:43.930Z,101646.97
2019-06-15T07:54:45.321Z,101645.28
2019-06-15T07:55:46.940Z,101646.11
2019-06-15T07:56:49.324Z,101647.98
2019-06-15T07:57:50.726Z,101648.32
2019-06-15T07:58:52.146Z,101648.47
2019-06-15T07:59:54.641Z,101654.39
2019-06-15T08:00:57.016Z,101652.03
2019-06-15T08:01:58.475Z,101645.28
2019-06-15T08:02:59.968Z,101653.04
2019-06-15T08:04:01.454Z,101644.42
2019-06-15T08:05:06.432Z,101649.82
2019-06-15T08:06:07.801Z,101647.64
2019-06-15T08:07:09.362Z,101647.45
2019-06-15T08:08:10.739Z,101644.94
2019-06-15T08:09:12.108Z,101646.63
2019-06-15T08:10:13.604Z,101648.32
2019-06-15T08:11:14.989Z,101643.41
2019-06-15T08:12:16.360Z,101643.06
2019-06-15T08:13:19.580Z,101644.42
2019-06-15T08:14:21.045Z,101641.23
2019-06-15T08:15:22.438Z,101640.37
2019-06-15T08:16:23.798Z,101636.32
2019-06-15T08:17:25.174Z,101633.62
2019-06-15T08:18:26.648Z,101639.02
2019-06-15T08:19:28.031Z,101639.54
2019-06-15T08:20:32.110Z,101636.32
2019-06-15T08:21:33.491Z,101641.23
2019-06-15T08:22:34.856Z,101633.95
2019-06-15T08:23:36.243Z,101638.01
2019-06-15T08:24:37.617Z,101635.31
2019-06-15T08:25:39.005Z,101634.48
2019-06-15T08:26:40.401Z,101629.91
2019-06-15T08:27:41.774Z,101630.77
2019-06-15T08:28:43.149Z,101626.72
2019-06-15T08:29:44.520Z,101631.27
2019-06-15T08:30:45.989Z,101629.91
2019-06-15T08:31:47.362Z,101628.07
2019-06-15T08:32:48.878Z,101624.02
2019-06-15T08:33:50.249Z,101626.37
2019-06-15T08:34:51.615Z,101622.67
2019-06-15T08:35:52.988Z,101622.67
2019-06-15T08:36:54.379Z,101619.63
2019-06-15T08:37:55.925Z,101625.52
2019-06-15T08:38:57.304Z,101623.34
2019-06-15T08:39:58.770Z,101627.73
2019-06-15T08:41:00.141Z,101622.33
2019-06-15T08:42:01.587Z,101622.81
2019-06-15T08:43:03.791Z,101624.17
2019-06-15T08:44:05.163Z,101620.64
2019-06-15T08:45:07.757Z,101625.52
2019-06-15T08:46:09.144Z,101620.64
2019-06-15T08:47:10.571Z,101621.98
2019-06-15T08:48:11.937Z,101621.13
2019-06-15T08:49:13.312Z,101623.34
2019-06-15T08:50:14.682Z,101623.00
2019-06-15T08:51:16.049Z,101618.95
2019-06-15T08:52:17.468Z,101618.61
2019-06-15T08:53:18.852Z,101615.91
2019-06-15T08:54:21.377Z,101616.92
2019-06-15T08:55:22.860Z,101620.11
2019-06-15T08:56:24.233Z,101615.05
2019-06-15T08:57:25.732Z,101616.58
2019-06-15T08:58:27.114Z,101614.70
2019-06-15T08:59:28.584Z,101609.30
2019-06-15T09:00:29.954Z,101615.05
2019-06-15T09:01:31.324Z,101609.83
2019-06-15T09:02:32.805Z,101607.27
2019-06-15T09:03:34.185Z,101611.32
2019-06-15T09:04:35.546Z,101608.13
2019-06-15T09:05:36.928Z,101608.47
2019-06-15T09:06:38.308Z,101611.17
2019-06-15T09:07:39.688Z,101613.19
2019-06-15T09:08:41.063Z,101605.09
2019-06-15T09:09:42.437Z,101608.80
2019-06-15T09:10:43.817Z,101603.74
2019-06-15T09:11:45.188Z,101604.75
2019-06-15T09:12:46.598Z,101606.59
2019-06-15T09:13:48.072Z,101602.54
2019-06-15T09:14:49.459Z,101605.77
2019-06-15T09:15:52.326Z,101608.80
2019-06-15T09:16:53.685Z,101614.87
2019-06-15T09:17:55.079Z,101610.64
2019-06-15T09:18:57.597Z,101610.64
2019-06-15T09:19:59.159Z,101612.85
2019-06-15T09:21:00.549Z,101611.65
2019-06-15T09:22:01.910Z,101614.87
2019-06-15T09:23:03.448Z,101607.78
2019-06-15T09:24:04.821Z,101604.40
2019-06-15T09:25:06.782Z,101610.48
2019-06-15T09:26:08.245Z,101614.53
2019-06-15T09:27:09.713Z,101611.48
2019-06-15T09:28:11.135Z,101613.33
2019-06-15T09:29:12.497Z,101616.02
2019-06-15T09:30:13.864Z,101609.80
2019-06-15T09:31:15.239Z,101618.23
2019-06-15T09:32:16.617Z,101612.50
2019-06-15T09:33:17.990Z,101614.85
2019-06-15T09:34:19.598Z,101620.59
2019-06-15T09:35:20.957Z,101613.99
2019-06-15T09:36:22.337Z,101619.39
2019-06-15T09:37:24.708Z,101621.61
2019-06-15T09:38:26.216Z,101621.61
2019-06-15T09:39:27.587Z,101616.87
2019-06-15T09:40:28.965Z,101619.05
2019-06-15T09:41:30.526Z,101620.40
2019-06-15T09:42:32.050Z,101623.96
2019-06-15T09:43:33.439Z,101620.92
2019-06-15T09:44:35.929Z,101627.15
2019-06-15T09:45:37.298Z,101626.31
2019-06-15T09:46:39.247Z,101625.98
2019-06-15T09:47:40.631Z,101629.02
2019-06-15T09:48:42.013Z,101623.28
2019-06-15T09:49:43.373Z,101624.62
2019-06-15T09:50:44.753Z,101634.08
2019-06-15T09:51:46.120Z,101630.03
2019-06-15T09:52:47.493Z,101636.77
2019-06-15T09:53:48.869Z,101635.77
2019-06-15T09:54:50.239Z,101633.22
2019-06-15T09:55:51.607Z,101638.13
2019-06-15T09:56:52.978Z,101637.27
2019-06-15T09:57:54.449Z,101638.27
2019-06-15T09:58:55.859Z,101636.44
2019-06-15T09:59:58.329Z,101634.22
2019-06-15T10:00:59.702Z,101644.88
2019-06-15T10:02:01.070Z,101641.49
2019-06-15T10:03:02.681Z,101639.63
2019-06-15T10:04:04.057Z,101643.52
2019-06-15T10:05:06.376Z,101644.02
2019-06-15T10:06:11.671Z,101645.88
2019-06-15T10:07:11.087Z,101648.41
2019-06-15T10:08:12.491Z,101654.81
2019-06-15T10:09:13.975Z,101648.06
2019-06-15T10:10:15.441Z,101652.11
2019-06-15T10:11:16.892Z,101655.81
2019-06-15T10:12:18.277Z,101653.64
2019-06-15T10:13:19.641Z,101648.23
2019-06-15T10:14:21.136Z,101649.06
2019-06-15T10:15:22.629Z,101647.72
2019-06-15T10:16:24.000Z,101647.72
2019-06-15T10:17:25.379Z,101649.06
2019-06-15T10:18:26.765Z,101650.94
2019-06-15T10:19:28.345Z,101653.98
2019-06-15T10:20:29.716Z,101653.64
2019-06-15T10:21:31.216Z,101656.34
2019-06-15T10:22:32.582Z,101651.77
2019-06-15T10:23:34.053Z,101659.38
2019-06-15T10:24:35.417Z,101657.69
2019-06-15T10:25:36.807Z,101666.12
2019-06-15T10:26:38.181Z,101656.68
2019-06-15T10:27:39.564Z,101657.16
2019-06-15T10:28:40.936Z,101666.95
2019-06-15T10:29:42.603Z,101663.42
2019-06-15T10:30:44.252Z,101665.61
2019-06-15T10:31:45.641Z,101676.41
2019-06-15T10:32:47.011Z,101659.38
2019-06-15T10:33:48.383Z,101662.42
2019-06-15T10:34:49.859Z,101670.52
2019-06-15T10:35:51.287Z,101680.98
2019-06-15T10:36:52.676Z,101672.88
2019-06-15T10:37:54.063Z,101675.58
2019-06-15T10:38:55.435Z,101675.58
2019-06-15T10:39:56.837Z,101674.23
2019-06-15T10:40:58.297Z,101677.75
2019-06-15T10:42:00.026Z,101679.62
2019-06-15T10:43:01.418Z,101682.67
2019-06-15T10:44:03.181Z,101675.92
2019-06-15T10:45:05.380Z,101678.09
2019-06-15T10:46:06.819Z,101669.51
2019-06-15T10:47:08.250Z,101672.21
2019-06-15T10:48:09.631Z,101676.26
2019-06-15T10:49:15.695Z,101677.95
2019-06-15T10:50:17.290Z,101672.55
2019-06-15T10:51:18.837Z,101678.30
2019-06-15T10:52:20.492Z,101678.30
2019-06-15T10:53:21.902Z,101682.34
2019-06-15T10:54:23.320Z,101675.94
2019-06-15T10:55:24.697Z,101681.00
2019-06-15T10:56:26.083Z,101679.12
2019-06-15T10:57:28.072Z,101682.69
2019-06-15T10:58:29.552Z,101685.39
2019-06-15T10:59:30.932Z,101684.03
2019-06-15T11:00:32.318Z,101681.34
2019-06-15T11:01:33.691Z,101683.03
2019-06-15T11:02:35.102Z,101679.98
2019-06-15T11:03:36.541Z,101680.33
2019-06-15T11:04:37.919Z,101683.86
2019-06-15T11:05:39.291Z,101684.72
2019-06-15T11:06:40.672Z,101687.42
2019-06-15T11:07:42.040Z,101682.51
2019-06-15T11:08:43.420Z,101680.67
2019-06-15T11:09:44.801Z,101682.02
2019-06-15T11:11:01.888Z,101678.31
2019-06-15T11:12:03.365Z,101682.02
2019-06-15T11:13:04.934Z,101675.95
2019-06-15T11:14:08.028Z,101678.80
2019-06-15T11:15:09.699Z,101678.98
2019-06-15T11:16:11.732Z,101683.38
2019-06-15T11:17:14.098Z,101681.50
2019-06-15T11:18:15.676Z,101676.63
2019-06-15T11:19:17.101Z,101679.66
2019-06-15T11:20:18.735Z,101676.63
2019-06-15T11:21:21.913Z,101670.70
2019-06-15T11:22:23.286Z,101676.97
2019-06-15T11:23:24.772Z,101675.61
2019-06-15T11:24:26.460Z,101673.40
2019-06-15T11:25:27.909Z,101679.14
2019-06-15T11:26:29.385Z,101675.09
2019-06-15T11:27:30.764Z,101673.25
2019-06-15T11:28:32.131Z,101674.27
2019-06-15T11:29:33.665Z,101675.44
2019-06-15T11:30:35.036Z,101675.09
2019-06-15T11:31:36.409Z,101685.06
2019-06-15T11:32:37.786Z,101691.81
2019-06-15T11:33:39.165Z,101687.77
2019-06-15T11:34:40.543Z,101682.51
2019-06-15T11:35:42.008Z,101689.59
2019-06-15T11:36:43.377Z,101691.47
2019-06-15T11:37:44.766Z,101688.77
2019-06-15T11:38:46.149Z,101683.52
2019-06-15T11:39:48.524Z,101690.27
2019-06-15T11:40:49.889Z,101689.44
2019-06-15T11:41:51.278Z,101690.27
2019-06-15T11:42:52.652Z,101695.17
2019-06-15T11:43:54.022Z,101689.58